createdAt,value
2022-09-18T00:00:23.832Z,0
2022-09-18T00:02:07.539Z,0
2022-09-18T00:03:51.259Z,0
2022-09-18T00:05:34.937Z,0
2022-09-18T00:07:18.646Z,0
2022-09-18T00:09:02.352Z,1
2022-09-18T00:10:46.067Z,0
2022-09-18T00:12:29.748Z,0
2022-09-18T00:14:13.476Z,0
2022-09-18T00:15:57.167Z,0
2022-09-18T00:17:40.874Z,1
2022-09-18T00:19:24.558Z,0
2022-09-18T00:21:08.266Z,0
2022-09-18T00:22:51.975Z,0
2022-09-18T00:24:35.676Z,0
2022-09-18T00:26:19.373Z,0
2022-09-18T00:28:03.062Z,0
2022-09-18T00:29:46.772Z,0
2022-09-18T00:31:30.475Z,0
2022-09-18T00:33:14.180Z,0
2022-09-18T00:34:57.869Z,0
2022-09-18T00:36:41.605Z,0
2022-09-18T00:38:25.279Z,0
2022-09-18T00:40:08.973Z,0
2022-09-18T00:41:52.670Z,0
2022-09-18T00:43:36.373Z,0
2022-09-18T00:45:20.077Z,0
2022-09-18T00:47:03.764Z,0
2022-09-18T00:48:47.467Z,0
2022-09-18T00:50:31.179Z,0
2022-09-18T00:52:14.880Z,0
2022-09-18T00:53:58.596Z,0
2022-09-18T00:55:42.287Z,0
2022-09-18T00:57:26.009Z,0
2022-09-18T00:59:09.700Z,0
2022-09-18T01:00:53.391Z,0
2022-09-18T01:02:37.097Z,0
2022-09-18T01:04:20.846Z,0
2022-09-18T01:06:04.501Z,0
2022-09-18T01:07:48.217Z,0
2022-09-18T01:09:31.910Z,0
2022-09-18T01:11:15.600Z,0
2022-09-18T01:12:59.314Z,2
2022-09-18T01:14:43.024Z,0
2022-09-18T01:16:26.740Z,0
2022-09-18T01:18:10.415Z,0
2022-09-18T01:19:54.124Z,0
2022-09-18T01:21:37.821Z,0
2022-09-18T01:23:21.519Z,0
2022-09-18T01:25:05.226Z,0
2022-09-18T01:26:49.005Z,0
2022-09-18T01:28:32.625Z,0
2022-09-18T01:30:16.330Z,0
2022-09-18T01:32:00.045Z,0
2022-09-18T01:33:43.741Z,0
2022-09-18T01:35:27.440Z,0
2022-09-18T01:37:11.150Z,0
2022-09-18T01:38:54.853Z,0
2022-09-18T01:40:38.547Z,0
2022-09-18T01:42:22.262Z,0
2022-09-18T01:44:05.965Z,0
2022-09-18T01:45:49.649Z,0
2022-09-18T01:47:33.365Z,0
2022-09-18T01:49:17.057Z,0
2022-09-18T01:52:44.472Z,0
2022-09-18T01:54:28.160Z,0
2022-09-18T01:56:11.869Z,0
2022-09-18T01:57:55.570Z,0
2022-09-18T01:59:39.257Z,0
2022-09-18T02:01:22.951Z,0
2022-09-18T02:03:06.658Z,0
2022-09-18T02:04:50.386Z,0
2022-09-18T02:06:34.065Z,0
2022-09-18T02:08:17.761Z,0
2022-09-18T02:10:01.464Z,0
2022-09-18T02:11:45.186Z,0
2022-09-18T02:13:28.870Z,0
2022-09-18T02:15:12.582Z,0
2022-09-18T02:16:56.281Z,0
2022-09-18T02:18:39.984Z,0
2022-09-18T02:20:23.677Z,0
2022-09-18T02:22:07.390Z,0
2022-09-18T02:23:51.095Z,0
2022-09-18T02:25:34.792Z,0
2022-09-18T02:27:18.488Z,0
2022-09-18T02:29:02.203Z,0
2022-09-18T02:30:45.922Z,0
2022-09-18T02:32:29.614Z,0
2022-09-18T02:34:13.312Z,1
2022-09-18T02:35:57.016Z,0
2022-09-18T02:37:40.719Z,0
2022-09-18T02:39:24.422Z,0
2022-09-18T02:41:08.151Z,0
2022-09-18T02:42:51.819Z,0
2022-09-18T02:44:35.527Z,0
2022-09-18T02:46:19.229Z,0
2022-09-18T02:48:02.923Z,0
2022-09-18T02:49:46.614Z,0
2022-09-18T02:51:30.329Z,0
2022-09-18T02:53:14.018Z,0
2022-09-18T02:54:57.730Z,0
2022-09-18T02:56:41.424Z,0
2022-09-18T02:58:25.130Z,0
2022-09-18T03:00:08.845Z,0
2022-09-18T03:01:52.540Z,0
2022-09-18T03:03:36.232Z,0
2022-09-18T03:05:19.956Z,0
2022-09-18T03:07:03.651Z,0
2022-09-18T03:08:47.347Z,1
2022-09-18T03:10:31.052Z,0
2022-09-18T03:12:14.747Z,0
2022-09-18T03:13:58.454Z,0
2022-09-18T03:15:42.167Z,0
2022-09-18T03:17:25.870Z,0
2022-09-18T03:19:09.558Z,0
2022-09-18T03:20:53.277Z,0
2022-09-18T03:22:37.006Z,0
2022-09-18T03:24:20.687Z,0
2022-09-18T03:26:04.378Z,0
2022-09-18T03:27:48.077Z,0
2022-09-18T03:29:31.776Z,0
2022-09-18T03:31:15.476Z,0
2022-09-18T03:32:59.229Z,0
2022-09-18T03:34:42.895Z,0
2022-09-18T03:36:26.600Z,0
2022-09-18T03:38:10.286Z,0
2022-09-18T03:39:53.980Z,0
2022-09-18T03:41:37.684Z,0
2022-09-18T03:43:21.399Z,0
2022-09-18T03:45:05.107Z,0
2022-09-18T03:46:48.783Z,0
2022-09-18T03:48:32.499Z,0
2022-09-18T03:50:16.189Z,0
2022-09-18T03:51:59.909Z,0
2022-09-18T03:53:43.580Z,0
2022-09-18T03:55:27.290Z,0
2022-09-18T03:57:10.996Z,0
2022-09-18T03:58:54.700Z,0
2022-09-18T04:00:38.405Z,0
2022-09-18T04:02:22.104Z,0
2022-09-18T04:04:05.855Z,0
2022-09-18T04:05:49.530Z,0
2022-09-18T04:07:33.206Z,0
2022-09-18T04:09:16.927Z,0
2022-09-18T04:11:00.621Z,0
2022-09-18T04:12:44.336Z,0
2022-09-18T04:14:28.037Z,0
2022-09-18T04:16:11.755Z,0
2022-09-18T04:17:55.447Z,0
2022-09-18T04:19:39.163Z,0
2022-09-18T04:21:22.836Z,0
2022-09-18T04:23:06.553Z,0
2022-09-18T04:24:50.247Z,0
2022-09-18T04:26:33.951Z,0
2022-09-18T04:28:17.670Z,0
2022-09-18T04:30:01.388Z,0
2022-09-18T04:31:45.057Z,0
2022-09-18T04:33:28.778Z,1
2022-09-18T04:35:12.461Z,0
2022-09-18T04:36:56.164Z,0
2022-09-18T04:38:39.864Z,0
2022-09-18T04:40:23.562Z,0
2022-09-18T04:42:07.289Z,0
2022-09-18T04:43:50.974Z,1
2022-09-18T04:45:34.684Z,1
2022-09-18T04:47:18.369Z,0
2022-09-18T04:49:02.083Z,1
2022-09-18T04:50:45.791Z,1
2022-09-18T04:52:29.479Z,2
2022-09-18T04:54:13.186Z,5
2022-09-18T04:55:56.899Z,7
2022-09-18T04:57:40.616Z,7
2022-09-18T04:59:24.288Z,8
2022-09-18T05:01:08.006Z,8
2022-09-18T05:02:51.696Z,6
2022-09-18T05:04:35.421Z,7
2022-09-18T05:06:19.089Z,7
2022-09-18T05:08:02.804Z,8
2022-09-18T05:09:46.504Z,11
2022-09-18T05:11:30.229Z,16
2022-09-18T05:13:13.902Z,18
2022-09-18T05:14:57.625Z,20
2022-09-18T05:16:41.326Z,22
2022-09-18T05:18:25.017Z,31
2022-09-18T05:20:08.725Z,37
2022-09-18T05:21:52.435Z,38
2022-09-18T05:23:36.140Z,48
2022-09-18T05:25:19.835Z,53
2022-09-18T05:27:03.539Z,48
2022-09-18T05:28:47.254Z,45
2022-09-18T05:30:30.958Z,39
2022-09-18T05:32:14.664Z,38
2022-09-18T05:33:58.355Z,47
2022-09-18T05:35:42.056Z,42
2022-09-18T05:37:25.762Z,42
2022-09-18T05:39:09.472Z,53
2022-09-18T05:40:53.171Z,53
2022-09-18T05:42:36.884Z,56
2022-09-18T05:44:20.562Z,74
2022-09-18T05:46:04.281Z,68
2022-09-18T05:47:47.977Z,65
2022-09-18T05:49:31.646Z,81
2022-09-18T05:51:15.361Z,91
2022-09-18T05:52:59.056Z,107
2022-09-18T05:54:42.771Z,97
2022-09-18T05:56:26.470Z,77
2022-09-18T05:58:10.177Z,62
2022-09-18T05:59:53.877Z,60
2022-09-18T06:01:37.595Z,73
2022-09-18T06:03:21.293Z,72
2022-09-18T06:05:04.979Z,60
2022-09-18T06:06:48.681Z,52
2022-09-18T06:08:32.413Z,44
2022-09-18T06:10:16.094Z,53
2022-09-18T06:11:59.789Z,65
2022-09-18T06:13:43.514Z,83
2022-09-18T06:15:27.211Z,92
2022-09-18T06:17:10.911Z,111
2022-09-18T06:18:54.607Z,126
2022-09-18T06:20:38.289Z,165
2022-09-18T06:22:22.003Z,190
2022-09-18T06:24:05.713Z,204
2022-09-18T06:25:49.398Z,169
2022-09-18T06:27:33.107Z,164
2022-09-18T06:29:16.822Z,184
2022-09-18T06:31:00.511Z,202
2022-09-18T06:32:44.222Z,185
2022-09-18T06:36:11.620Z,160
2022-09-18T06:37:55.317Z,133
2022-09-18T06:39:39.036Z,154
2022-09-18T06:41:22.727Z,177
2022-09-18T06:43:06.437Z,203
2022-09-18T06:44:50.141Z,209
2022-09-18T06:46:33.868Z,255
2022-09-18T06:48:17.557Z,277
2022-09-18T06:50:01.253Z,269
2022-09-18T06:51:44.953Z,287
2022-09-18T06:53:28.643Z,286
2022-09-18T06:55:12.358Z,327
2022-09-18T06:56:56.067Z,408
2022-09-18T07:00:09.502Z,490
2022-09-18T07:00:23.467Z,613
2022-09-18T07:02:07.155Z,671
2022-09-18T07:03:50.909Z,625
2022-09-18T07:05:34.582Z,591
2022-09-18T07:07:18.328Z,590
2022-09-18T07:09:01.968Z,533
2022-09-18T07:10:45.683Z,475
2022-09-18T07:12:29.371Z,420
2022-09-18T07:14:13.066Z,411
2022-09-18T07:15:56.780Z,371
2022-09-18T07:17:40.464Z,344
2022-09-18T07:19:24.175Z,374
2022-09-18T07:21:07.876Z,443
2022-09-18T07:22:51.564Z,443
2022-09-18T07:24:35.275Z,397
2022-09-18T07:26:18.986Z,335
2022-09-18T07:28:02.692Z,331
2022-09-18T07:29:46.421Z,341
2022-09-18T07:31:30.189Z,395
2022-09-18T07:33:13.842Z,480
2022-09-18T07:34:57.501Z,538
2022-09-18T07:36:41.197Z,719
2022-09-18T07:38:24.889Z,774
2022-09-18T07:40:08.596Z,775
2022-09-18T07:41:52.307Z,774
2022-09-18T07:43:35.996Z,775
2022-09-18T07:45:19.696Z,775
2022-09-18T07:47:03.405Z,775
2022-09-18T07:48:47.122Z,775
2022-09-18T07:50:30.814Z,775
2022-09-18T07:52:14.488Z,775
2022-09-18T07:53:58.207Z,774
2022-09-18T07:55:41.910Z,775
2022-09-18T07:57:25.605Z,775
2022-09-18T07:59:09.315Z,775
2022-09-18T08:00:53.009Z,775
2022-09-18T08:02:36.729Z,775
2022-09-18T08:04:20.436Z,775
2022-09-18T08:06:04.108Z,774
2022-09-18T08:07:47.821Z,775
2022-09-18T08:09:31.515Z,775
2022-09-18T08:11:15.240Z,775
2022-09-18T08:12:58.915Z,775
2022-09-18T08:14:42.634Z,774
2022-09-18T08:16:26.428Z,775
2022-09-18T08:18:10.032Z,722
2022-09-18T08:19:53.771Z,754
2022-09-18T08:21:37.454Z,687
2022-09-18T08:23:21.152Z,775
2022-09-18T08:25:04.851Z,775
2022-09-18T08:26:48.553Z,773
2022-09-18T08:28:32.323Z,776
2022-09-18T08:30:15.972Z,775
2022-09-18T08:31:59.668Z,776
2022-09-18T08:33:43.358Z,775
2022-09-18T08:35:27.067Z,776
2022-09-18T08:37:10.765Z,775
2022-09-18T08:38:54.471Z,775
2022-09-18T08:40:38.171Z,775
2022-09-18T08:42:21.914Z,775
2022-09-18T08:44:05.569Z,775
2022-09-18T08:45:49.272Z,775
2022-09-18T08:47:32.969Z,775
2022-09-18T08:51:00.368Z,775
2022-09-18T08:52:44.062Z,775
2022-09-18T08:54:27.771Z,775
2022-09-18T08:56:11.458Z,776
2022-09-18T08:57:55.171Z,776
2022-09-18T08:59:38.874Z,776
2022-09-18T09:01:22.583Z,776
2022-09-18T09:03:06.285Z,776
2022-09-18T09:04:49.994Z,776
2022-09-18T09:06:33.693Z,776
2022-09-18T09:08:17.393Z,776
2022-09-18T09:10:01.088Z,776
2022-09-18T09:11:44.798Z,776
2022-09-18T09:13:28.497Z,775
2022-09-18T09:15:12.203Z,776
2022-09-18T09:16:56.042Z,776
2022-09-18T09:18:39.776Z,776
2022-09-18T09:20:23.371Z,775
2022-09-18T09:22:07.013Z,775
2022-09-18T09:23:50.874Z,776
2022-09-18T09:25:34.453Z,776
2022-09-18T09:27:18.140Z,775
2022-09-18T09:29:01.827Z,775
2022-09-18T09:30:45.532Z,776
2022-09-18T09:32:29.241Z,776
2022-09-18T09:34:12.942Z,775
2022-09-18T09:35:56.632Z,776
2022-09-18T09:37:40.340Z,776
2022-09-18T09:39:24.038Z,775
2022-09-18T09:41:07.747Z,775
2022-09-18T09:42:51.451Z,775
2022-09-18T09:44:35.157Z,773
2022-09-18T09:46:18.846Z,775
2022-09-18T09:48:02.563Z,775
2022-09-18T09:49:46.262Z,775
2022-09-18T09:51:29.976Z,776
2022-09-18T09:53:13.648Z,775
2022-09-18T09:54:57.374Z,775
2022-09-18T09:56:41.060Z,776
2022-09-18T09:58:24.778Z,776
2022-09-18T10:00:08.450Z,776
2022-09-18T10:01:52.210Z,775
2022-09-18T10:03:35.866Z,775
2022-09-18T10:05:19.571Z,775
2022-09-18T10:07:03.290Z,776
2022-09-18T10:08:46.969Z,775
2022-09-18T10:10:30.669Z,776
2022-09-18T10:12:14.388Z,775
2022-09-18T10:13:58.072Z,776
2022-09-18T10:15:41.761Z,776
2022-09-18T10:17:25.494Z,776
2022-09-18T10:19:09.179Z,775
2022-09-18T10:20:52.875Z,775
2022-09-18T10:22:36.596Z,777
2022-09-18T10:24:20.274Z,776
2022-09-18T10:26:03.987Z,775
2022-09-18T10:27:47.678Z,775
2022-09-18T10:29:31.378Z,776
2022-09-18T10:31:15.075Z,776
2022-09-18T10:32:58.780Z,776
2022-09-18T10:34:42.462Z,776
2022-09-18T10:36:26.181Z,776
2022-09-18T10:38:09.890Z,776
2022-09-18T10:39:53.585Z,776
2022-09-18T10:41:37.283Z,776
2022-09-18T10:43:20.982Z,776
2022-09-18T10:45:04.692Z,776
2022-09-18T10:46:48.394Z,776
2022-09-18T10:48:32.072Z,777
2022-09-18T10:50:15.778Z,776
2022-09-18T10:51:59.486Z,776
2022-09-18T10:53:43.191Z,777
2022-09-18T10:55:26.889Z,777
2022-09-18T10:57:10.573Z,777
2022-09-18T10:58:54.284Z,777
2022-09-18T11:00:37.991Z,777
2022-09-18T11:02:21.697Z,776
2022-09-18T11:04:05.398Z,777
2022-09-18T11:05:49.104Z,777
2022-09-18T11:07:32.806Z,777
2022-09-18T11:09:16.507Z,777
2022-09-18T11:11:00.210Z,777
2022-09-18T11:12:43.907Z,777
2022-09-18T11:14:27.623Z,776
2022-09-18T11:16:11.315Z,775
2022-09-18T11:17:55.027Z,776
2022-09-18T11:19:38.711Z,776
2022-09-18T11:21:22.440Z,777
2022-09-18T11:23:06.126Z,775
2022-09-18T11:24:49.823Z,777
2022-09-18T11:26:33.537Z,777
2022-09-18T11:28:17.258Z,777
2022-09-18T11:30:01.002Z,777
2022-09-18T11:31:44.656Z,777
2022-09-18T11:33:28.362Z,777
2022-09-18T11:35:12.063Z,778
2022-09-18T11:36:55.751Z,777
2022-09-18T11:38:39.454Z,777
2022-09-18T11:40:23.211Z,777
2022-09-18T11:42:06.871Z,777
2022-09-18T11:43:50.571Z,777
2022-09-18T11:45:34.272Z,777
2022-09-18T11:47:17.986Z,777
2022-09-18T11:49:01.684Z,777
2022-09-18T11:50:45.384Z,777
2022-09-18T11:52:29.089Z,777
2022-09-18T11:54:12.819Z,777
2022-09-18T11:55:56.505Z,777
2022-09-18T11:59:23.904Z,778
2022-09-18T12:01:07.612Z,777
2022-09-18T12:02:51.323Z,777
2022-09-18T12:04:35.013Z,777
2022-09-18T12:06:18.726Z,776
2022-09-18T12:08:01.060Z,777
2022-09-18T12:09:44.790Z,777
2022-09-18T12:11:28.485Z,777
2022-09-18T12:13:12.163Z,777
2022-09-18T12:14:55.877Z,777
2022-09-18T12:16:39.589Z,776
2022-09-18T12:18:23.271Z,777
2022-09-18T12:20:06.980Z,777
2022-09-18T12:21:50.690Z,777
2022-09-18T12:23:34.389Z,777
2022-09-18T12:25:18.074Z,777
2022-09-18T12:27:01.783Z,777
2022-09-18T12:28:45.489Z,776
2022-09-18T12:30:29.210Z,777
2022-09-18T12:32:12.872Z,777
2022-09-18T12:33:56.582Z,777
2022-09-18T12:35:40.276Z,777
2022-09-18T12:37:23.993Z,777
2022-09-18T12:39:08.346Z,777
2022-09-18T12:40:52.049Z,777
2022-09-18T12:42:35.755Z,777
2022-09-18T12:44:19.468Z,777
2022-09-18T12:46:03.160Z,777
2022-09-18T12:47:46.862Z,776
2022-09-18T12:49:30.603Z,777
2022-09-18T12:51:14.267Z,776
2022-09-18T12:52:57.951Z,777
2022-09-18T12:54:41.674Z,777
2022-09-18T12:56:25.364Z,777
2022-09-18T12:58:09.096Z,777
2022-09-18T12:59:52.785Z,776
2022-09-18T13:01:36.495Z,778
2022-09-18T13:03:20.174Z,777
2022-09-18T13:05:03.867Z,776
2022-09-18T13:06:47.593Z,775
2022-09-18T13:08:31.279Z,777
2022-09-18T13:10:15.008Z,777
2022-09-18T13:11:58.770Z,777
2022-09-18T13:13:42.506Z,774
2022-09-18T13:15:26.212Z,777
2022-09-18T13:17:10.676Z,777
2022-09-18T13:18:54.258Z,777
2022-09-18T13:20:38.054Z,777
2022-09-18T13:22:21.759Z,776
2022-09-18T13:24:05.354Z,777
2022-09-18T13:25:49.171Z,776
2022-09-18T13:27:32.864Z,777
2022-09-18T13:29:16.543Z,777
2022-09-18T13:31:00.284Z,776
2022-09-18T13:32:43.958Z,717
2022-09-18T13:34:27.660Z,708
2022-09-18T13:36:11.286Z,776
2022-09-18T13:37:55.022Z,777
2022-09-18T13:39:38.607Z,776
2022-09-18T13:41:22.327Z,776
2022-09-18T13:43:06.027Z,776
2022-09-18T13:44:49.808Z,776
2022-09-18T13:46:33.410Z,776
2022-09-18T13:48:17.250Z,777
2022-09-18T13:50:00.838Z,775
2022-09-18T13:51:44.515Z,775
2022-09-18T13:53:28.204Z,777
2022-09-18T13:55:11.918Z,776
2022-09-18T13:56:55.589Z,776
2022-09-18T13:58:39.308Z,776
2022-09-18T14:02:06.722Z,776
2022-09-18T14:03:50.413Z,776
2022-09-18T14:05:34.112Z,776
2022-09-18T14:07:17.816Z,775
2022-09-18T14:09:01.502Z,776
2022-09-18T14:10:45.195Z,776
2022-09-18T14:12:28.923Z,776
2022-09-18T14:14:12.601Z,777
2022-09-18T14:15:56.303Z,776
2022-09-18T14:17:40.005Z,776
2022-09-18T14:19:23.717Z,777
2022-09-18T14:21:07.415Z,776
2022-09-18T14:22:51.110Z,752
2022-09-18T14:24:34.790Z,666
2022-09-18T14:26:18.510Z,679
2022-09-18T14:28:02.211Z,689
2022-09-18T14:29:45.913Z,656
2022-09-18T14:31:29.600Z,742
2022-09-18T14:33:13.318Z,775
2022-09-18T14:34:57.016Z,776
2022-09-18T14:36:40.730Z,776
2022-09-18T14:38:24.413Z,776
2022-09-18T14:40:08.127Z,776
2022-09-18T14:41:51.837Z,776
2022-09-18T14:43:35.548Z,776
2022-09-18T14:47:02.945Z,776
2022-09-18T14:48:46.653Z,776
2022-09-18T14:50:30.355Z,776
2022-09-18T14:52:14.048Z,773
2022-09-18T14:53:57.761Z,776
2022-09-18T14:55:41.446Z,776
2022-09-18T14:57:25.172Z,776
2022-09-18T14:59:08.858Z,776
2022-09-18T15:00:52.562Z,776
2022-09-18T15:02:36.248Z,776
2022-09-18T15:04:19.963Z,776
2022-09-18T15:06:03.659Z,775
2022-09-18T15:07:47.365Z,776
2022-09-18T15:09:31.055Z,776
2022-09-18T15:11:14.769Z,775
2022-09-18T15:12:58.475Z,754
2022-09-18T15:14:42.169Z,720
2022-09-18T15:16:25.858Z,655
2022-09-18T15:18:09.569Z,595
2022-09-18T15:19:53.287Z,551
2022-09-18T15:21:36.974Z,529
2022-09-18T15:23:20.681Z,524
2022-09-18T15:25:04.389Z,503
2022-09-18T15:26:48.086Z,487
2022-09-18T15:28:31.808Z,496
2022-09-18T15:30:15.495Z,506
2022-09-18T15:31:59.195Z,490
2022-09-18T15:33:42.921Z,456
2022-09-18T15:35:26.612Z,420
2022-09-18T15:37:10.302Z,403
2022-09-18T15:38:54.012Z,377
2022-09-18T15:40:37.731Z,376
2022-09-18T15:42:21.414Z,396
2022-09-18T15:44:05.118Z,383
2022-09-18T15:47:32.521Z,457
2022-09-18T15:49:16.217Z,446
2022-09-18T15:50:59.932Z,434
2022-09-18T15:52:43.622Z,421
2022-09-18T15:54:27.331Z,385
2022-09-18T15:56:11.061Z,335
2022-09-18T15:57:54.736Z,320
2022-09-18T15:59:38.449Z,313
2022-09-18T16:01:22.128Z,307
2022-09-18T16:03:05.846Z,776
2022-09-18T16:04:49.538Z,776
2022-09-18T16:06:33.246Z,775
2022-09-18T16:08:16.935Z,774
2022-09-18T16:10:00.618Z,775
2022-09-18T16:11:44.333Z,777
2022-09-18T16:13:28.048Z,775
2022-09-18T16:15:11.729Z,775
2022-09-18T16:16:55.696Z,776
2022-09-18T16:18:39.128Z,776
2022-09-18T16:20:22.835Z,775
2022-09-18T16:22:06.538Z,775
2022-09-18T16:23:50.232Z,775
2022-09-18T16:25:33.928Z,775
2022-09-18T16:27:17.639Z,775
2022-09-18T16:29:01.345Z,775
2022-09-18T16:30:45.047Z,775
2022-09-18T16:32:28.751Z,466
2022-09-18T16:34:12.436Z,775
2022-09-18T16:35:56.150Z,769
2022-09-18T16:37:39.852Z,449
2022-09-18T16:39:23.552Z,445
2022-09-18T16:41:07.284Z,436
2022-09-18T16:42:50.965Z,775
2022-09-18T16:44:34.668Z,448
2022-09-18T16:46:18.379Z,412
2022-09-18T16:48:02.072Z,756
2022-09-18T16:49:45.772Z,775
2022-09-18T16:51:29.490Z,364
2022-09-18T16:53:13.187Z,717
2022-09-18T16:54:56.871Z,574
2022-09-18T16:58:24.334Z,567
2022-09-18T17:00:07.988Z,392
2022-09-18T17:01:51.677Z,524
2022-09-18T17:03:35.407Z,324
2022-09-18T17:05:19.098Z,668
2022-09-18T17:07:02.800Z,687
2022-09-18T17:08:46.508Z,562
2022-09-18T17:10:30.211Z,598
2022-09-18T17:12:13.902Z,652
2022-09-18T17:13:57.594Z,654
2022-09-18T17:15:41.292Z,653
2022-09-18T17:17:25.000Z,641
2022-09-18T17:19:08.715Z,775
2022-09-18T17:20:52.404Z,775
2022-09-18T17:22:36.138Z,775
2022-09-18T17:24:19.805Z,775
2022-09-18T17:26:03.527Z,775
2022-09-18T17:27:47.218Z,775
2022-09-18T17:29:30.944Z,774
2022-09-18T17:31:14.618Z,775
2022-09-18T17:32:58.334Z,776
2022-09-18T17:34:42.037Z,774
2022-09-18T17:36:25.776Z,776
2022-09-18T17:38:09.457Z,774
2022-09-18T17:39:53.133Z,776
2022-09-18T17:41:36.863Z,775
2022-09-18T17:43:20.559Z,775
2022-09-18T17:45:04.252Z,775
2022-09-18T17:46:47.976Z,775
2022-09-18T17:48:31.670Z,775
2022-09-18T17:50:15.359Z,775
2022-09-18T17:51:59.057Z,775
2022-09-18T17:53:42.774Z,775
2022-09-18T17:55:26.491Z,775
2022-09-18T17:57:10.186Z,775
2022-09-18T17:58:53.884Z,775
2022-09-18T18:00:37.572Z,775
2022-09-18T18:02:21.283Z,775
2022-09-18T18:04:04.993Z,775
2022-09-18T18:05:48.681Z,774
2022-09-18T18:07:32.379Z,775
2022-09-18T18:09:16.089Z,775
2022-09-18T18:10:59.786Z,775
2022-09-18T18:12:43.480Z,775
2022-09-18T18:14:27.195Z,775
2022-09-18T18:16:10.884Z,775
2022-09-18T18:17:54.591Z,775
2022-09-18T18:19:38.298Z,775
2022-09-18T18:21:22.010Z,775
2022-09-18T18:23:05.713Z,775
2022-09-18T18:24:49.421Z,774
2022-09-18T18:26:33.098Z,775
2022-09-18T18:28:16.824Z,775
2022-09-18T18:30:00.524Z,775
2022-09-18T18:31:44.218Z,775
2022-09-18T18:33:27.926Z,775
2022-09-18T18:35:11.621Z,775
2022-09-18T18:36:55.326Z,773
2022-09-18T18:38:39.033Z,774
2022-09-18T18:40:22.718Z,775
2022-09-18T18:42:06.429Z,775
2022-09-18T18:43:50.150Z,775
2022-09-18T18:45:33.823Z,775
2022-09-18T18:47:17.556Z,775
2022-09-18T18:49:01.238Z,775
2022-09-18T18:50:44.933Z,775
2022-09-18T18:52:28.631Z,775
2022-09-18T18:54:12.335Z,775
2022-09-18T18:55:56.047Z,775
2022-09-18T18:57:39.750Z,776
2022-09-18T18:59:23.449Z,775
2022-09-18T19:01:07.148Z,775
2022-09-18T19:02:50.851Z,775
2022-09-18T19:04:34.550Z,774
2022-09-18T19:06:18.273Z,775
2022-09-18T19:08:01.951Z,3
2022-09-18T19:09:45.698Z,4
2022-09-18T19:11:29.372Z,3
2022-09-18T19:13:13.114Z,3
2022-09-18T19:14:56.756Z,3
2022-09-18T19:16:40.468Z,3
2022-09-18T19:18:24.159Z,3
2022-09-18T19:20:07.910Z,3
2022-09-18T19:21:51.551Z,3
2022-09-18T19:23:35.273Z,3
2022-09-18T19:25:18.968Z,3
2022-09-18T19:27:02.681Z,3
2022-09-18T19:28:46.357Z,3
2022-09-18T19:30:30.069Z,3
2022-09-18T19:32:13.787Z,3
2022-09-18T19:33:57.489Z,3
2022-09-18T19:35:41.174Z,4
2022-09-18T19:37:24.873Z,3
2022-09-18T19:39:08.619Z,3
2022-09-18T19:40:52.310Z,3
2022-09-18T19:42:36.006Z,3
2022-09-18T19:44:19.717Z,3
2022-09-18T19:46:03.392Z,3
2022-09-18T19:47:47.108Z,3
2022-09-18T19:49:30.800Z,3
2022-09-18T19:51:14.494Z,3
2022-09-18T19:52:58.197Z,4
2022-09-18T19:54:41.910Z,3
2022-09-18T19:56:25.609Z,3
2022-09-18T19:58:09.305Z,3
2022-09-18T19:59:52.997Z,3
2022-09-18T20:01:36.724Z,3
2022-09-18T20:03:20.457Z,4
2022-09-18T20:05:04.129Z,4
2022-09-18T20:06:47.811Z,3
2022-09-18T20:08:31.530Z,4
2022-09-18T20:10:15.256Z,3
2022-09-18T20:11:58.936Z,3
2022-09-18T20:13:42.665Z,4
2022-09-18T20:15:26.363Z,3
2022-09-18T20:17:10.038Z,4
2022-09-18T20:18:53.736Z,3
2022-09-18T20:20:37.432Z,3
2022-09-18T20:22:21.215Z,4
2022-09-18T20:24:04.834Z,3
2022-09-18T20:25:48.533Z,3
2022-09-18T20:27:32.227Z,3
2022-09-18T20:29:15.961Z,3
2022-09-18T20:30:59.667Z,3
2022-09-18T20:32:43.363Z,3
2022-09-18T20:34:27.048Z,3
2022-09-18T20:36:10.785Z,3
2022-09-18T20:37:54.447Z,3
2022-09-18T20:39:38.171Z,3
2022-09-18T20:41:21.850Z,3
2022-09-18T20:43:05.553Z,3
2022-09-18T20:44:49.274Z,3
2022-09-18T20:46:32.960Z,3
2022-09-18T20:48:16.690Z,3
2022-09-18T20:50:00.362Z,2
2022-09-18T20:51:44.067Z,3
2022-09-18T20:53:27.776Z,4
2022-09-18T20:55:11.471Z,4
2022-09-18T20:56:55.171Z,4
2022-09-18T20:58:38.872Z,3
2022-09-18T21:00:22.578Z,4
2022-09-18T21:02:06.284Z,3
2022-09-18T21:03:49.989Z,4
2022-09-18T21:05:33.734Z,3
2022-09-18T21:07:17.391Z,3
2022-09-18T21:09:01.088Z,3
2022-09-18T21:10:45.074Z,4
2022-09-18T21:12:28.501Z,3
2022-09-18T21:14:12.203Z,3
2022-09-18T21:15:55.900Z,3
2022-09-18T21:17:39.612Z,4
2022-09-18T21:19:23.314Z,3
2022-09-18T21:21:06.997Z,3
2022-09-18T21:22:50.703Z,3
2022-09-18T21:24:34.427Z,4
2022-09-18T21:26:18.111Z,4
2022-09-18T21:28:01.817Z,3
2022-09-18T21:29:45.522Z,3
2022-09-18T21:31:29.226Z,3
2022-09-18T21:33:13.163Z,70
2022-09-18T21:34:56.621Z,73
2022-09-18T21:36:40.316Z,73
2022-09-18T21:38:24.026Z,0
2022-09-18T21:40:07.731Z,0
2022-09-18T21:41:51.423Z,0
2022-09-18T21:43:35.144Z,0
2022-09-18T21:45:18.828Z,1
2022-09-18T21:47:02.553Z,0
2022-09-18T21:48:46.224Z,0
2022-09-18T21:50:29.936Z,0
2022-09-18T21:52:13.650Z,0
2022-09-18T21:53:57.337Z,0
2022-09-18T21:55:41.062Z,0
2022-09-18T21:57:24.750Z,0
2022-09-18T21:59:08.452Z,0
2022-09-18T22:00:52.152Z,1
2022-09-18T22:02:35.897Z,0
2022-09-18T22:04:19.608Z,0
2022-09-18T22:06:03.268Z,0
2022-09-18T22:07:46.988Z,0
2022-09-18T22:09:30.669Z,0
2022-09-18T22:11:14.444Z,0
2022-09-18T22:12:58.075Z,1
2022-09-18T22:14:41.835Z,0
2022-09-18T22:16:25.496Z,1
2022-09-18T22:18:09.180Z,0
2022-09-18T22:19:52.893Z,0
2022-09-18T22:21:36.608Z,0
2022-09-18T22:23:20.281Z,0
2022-09-18T22:25:04.003Z,0
2022-09-18T22:26:47.707Z,0
2022-09-18T22:28:31.441Z,0
2022-09-18T22:30:15.106Z,1
2022-09-18T22:31:58.798Z,0
2022-09-18T22:33:42.545Z,0
2022-09-18T22:35:26.219Z,0
2022-09-18T22:37:09.984Z,0
2022-09-18T22:38:53.601Z,0
2022-09-18T22:40:37.315Z,1
2022-09-18T22:42:21.012Z,0
2022-09-18T22:44:04.697Z,0
2022-09-18T22:45:48.426Z,0
2022-09-18T22:47:32.133Z,0
2022-09-18T22:49:15.816Z,0
2022-09-18T22:50:59.509Z,0
2022-09-18T22:52:43.212Z,0
2022-09-18T22:54:26.909Z,1
2022-09-18T22:56:10.612Z,0
2022-09-18T22:57:54.302Z,0
2022-09-18T22:59:38.000Z,1
2022-09-18T23:01:21.717Z,0
2022-09-18T23:03:05.424Z,0
2022-09-18T23:04:49.150Z,0
2022-09-18T23:06:32.804Z,0
2022-09-18T23:08:16.512Z,0
2022-09-18T23:10:00.230Z,0
2022-09-18T23:11:43.900Z,0
2022-09-18T23:13:27.615Z,0
2022-09-18T23:15:11.314Z,0
2022-09-18T23:16:55.024Z,0
2022-09-18T23:18:38.714Z,0
2022-09-18T23:20:22.411Z,0
2022-09-18T23:22:06.142Z,0
2022-09-18T23:23:49.825Z,1
2022-09-18T23:25:33.520Z,0
2022-09-18T23:27:17.214Z,0
2022-09-18T23:29:00.923Z,0
2022-09-18T23:30:44.635Z,0
2022-09-18T23:32:28.357Z,1
2022-09-18T23:34:12.016Z,0
2022-09-18T23:35:55.727Z,1
2022-09-18T23:37:39.443Z,0
2022-09-18T23:39:23.117Z,0
2022-09-18T23:41:06.823Z,0
2022-09-18T23:42:50.537Z,1
2022-09-18T23:44:34.237Z,1
2022-09-18T23:46:17.929Z,0
2022-09-18T23:48:01.624Z,0
2022-09-18T23:49:45.336Z,0
2022-09-18T23:51:29.044Z,0
2022-09-18T23:53:12.730Z,0
2022-09-18T23:54:56.439Z,0
2022-09-18T23:56:40.134Z,0
2022-09-18T23:58:23.837Z,1
